Manizales — CQKL — position and weather

sailwx.info

Track history (hours):
 
Tides and Currents Weather Stations Pressure Air Temp Water Temp Dewpoint Dewpoint Depression Visibility Wind Speed Wind Dir Waves Ship Positions

Manizales

Last reported at 2015-Mar-16 23:33 UTC. Time now 2015-Jul-05 23:20 UTC.
Position N 27°22' W 083°07'.
Warning: this ship's position is months out of date.

Length 119 m; draft 7.2 m.

Type: Cargo ship. MMSI: 255804560.

Date/timePositionNaut miles runAvg speedWind from/ knotsBaromVisibWave heightAir tempDewpointWater temp
2015-Mar-16 23:33N 27°22' W 083°07'1111.3
2015-Mar-16 22:33N 27°32' W 083°02'26 2.0
2015-Mar-16 09:11N 27°38' W 082°34'0 0.0
2015-Mar-16 08:31N 27°38' W 082°34'0 0.0
2015-Mar-16 07:11N 27°38' W 082°34'0 0.1
2015-Mar-16 06:24N 27°38' W 082°34'3 3.6
2015-Mar-16 05:33N 27°41' W 082°35'1010.1
2015-Mar-16 04:33N 27°48' W 082°28'7 6.8
2015-Mar-16 03:33N 27°55' W 082°25'0 0.0
2015-Mar-16 02:33N 27°55' W 082°25'0 0.0
2015-Mar-16 01:33N 27°55' W 082°25'0 0.0
2015-Mar-16 00:33N 27°55' W 082°25'0 0.0
2015-Mar-15 23:33N 27°55' W 082°25'0 0.0
2015-Mar-15 22:33N 27°55' W 082°25'0 0.0
2015-Mar-15 21:33N 27°55' W 082°25'0 0.0
2015-Mar-15 20:33N 27°55' W 082°25'0 0.0
2015-Mar-15 19:33N 27°55' W 082°25'0 0.0
2015-Mar-15 18:33N 27°55' W 082°25'0 0.0
2015-Mar-15 17:33N 27°55' W 082°25'0 0.0
2015-Mar-15 16:33N 27°55' W 082°25'0 0.0
2015-Mar-15 15:33N 27°55' W 082°25'0 0.0
2015-Mar-15 14:33N 27°55' W 082°25'0 0.0
2015-Mar-15 13:33N 27°55' W 082°25'0 0.0
2015-Mar-15 12:33N 27°55' W 082°25'0 0.0
2015-Mar-15 11:30N 27°55' W 082°25'0 0.0
2015-Mar-15 10:30N 27°55' W 082°25'0 0.0
2015-Mar-15 09:33N 27°55' W 082°25'0 0.0
2015-Mar-15 08:33N 27°55' W 082°25'2 2.5
2015-Mar-15 07:33N 27°53' W 082°26'1010.0
2015-Mar-15 06:33N 27°44' W 082°32'  
Track history (hours):
 
Tides and Currents Weather Stations Pressure Air Temp Water Temp Dewpoint Dewpoint Depression Visibility Wind Speed Wind Dir Waves Ship Positions

Manizales

Last reported at 2015-Mar-16 23:33 UTC. Time now 2015-Jul-05 23:20 UTC.
Position N 27°22' W 083°07'.
Warning: this ship's position is months out of date.

Length 119 m; draft 7.2 m.

Type: Cargo ship. MMSI: 255804560.

Date/timePositionNaut miles runAvg speedWind from/ knotsBaromVisibWave heightAir tempDewpointWater temp
2015-Mar-16 23:33N 27°22' W 083°07'1111.3
2015-Mar-16 22:33N 27°32' W 083°02'26 2.0
2015-Mar-16 09:11N 27°38' W 082°34'0 0.0
2015-Mar-16 08:31N 27°38' W 082°34'0 0.0
2015-Mar-16 07:11N 27°38' W 082°34'0 0.1
2015-Mar-16 06:24N 27°38' W 082°34'3 3.6
2015-Mar-16 05:33N 27°41' W 082°35'1010.1
2015-Mar-16 04:33N 27°48' W 082°28'7 6.8
2015-Mar-16 03:33N 27°55' W 082°25'0 0.0
2015-Mar-16 02:33N 27°55' W 082°25'0 0.0
2015-Mar-16 01:33N 27°55' W 082°25'0 0.0
2015-Mar-16 00:33N 27°55' W 082°25'0 0.0
2015-Mar-15 23:33N 27°55' W 082°25'0 0.0
2015-Mar-15 22:33N 27°55' W 082°25'0 0.0
2015-Mar-15 21:33N 27°55' W 082°25'0 0.0
2015-Mar-15 20:33N 27°55' W 082°25'0 0.0
2015-Mar-15 19:33N 27°55' W 082°25'0 0.0
2015-Mar-15 18:33N 27°55' W 082°25'0 0.0
2015-Mar-15 17:33N 27°55' W 082°25'0 0.0
2015-Mar-15 16:33N 27°55' W 082°25'0 0.0
2015-Mar-15 15:33N 27°55' W 082°25'0 0.0
2015-Mar-15 14:33N 27°55' W 082°25'0 0.0
2015-Mar-15 13:33N 27°55' W 082°25'0 0.0
2015-Mar-15 12:33N 27°55' W 082°25'0 0.0
2015-Mar-15 11:30N 27°55' W 082°25'0 0.0
2015-Mar-15 10:30N 27°55' W 082°25'0 0.0
2015-Mar-15 09:33N 27°55' W 082°25'0 0.0
2015-Mar-15 08:33N 27°55' W 082°25'2 2.5
2015-Mar-15 07:33N 27°53' W 082°26'1010.0
2015-Mar-15 06:33N 27°44' W 082°32'  

Dump ship's entire track history